Time;durP1;ratioP1;P1;durP2;ratioP2;P2;SDS_P1;SDS_P2;PMS_P1;PMS_P2;Temp;Humidity;BMP_temperature;BMP_pressure;BME280_temperature;BME280_humidity;BME280_pressure;Samples;Min_cycle;Max_cycle;Signal;HPM_P1;HPM_P2
2023/10/18 00:01:01;;;;;;;3.63;3.22;;;18.10;66.40;;;;;;5009226;28;20242;-69
2023/10/18 00:03:29;;;;;;;3.00;2.80;;;18.10;66.40;;;;;;5010955;28;20195;-69
2023/10/18 00:05:56;;;;;;;2.90;2.60;;;18.10;66.70;;;;;;5030591;28;20205;-71
2023/10/18 00:08:22;;;;;;;2.65;2.45;;;18.10;66.40;;;;;;5014731;28;20183;-69
2023/10/18 00:10:55;;;;;;;3.35;2.60;;;18.10;66.40;;;;;;5014476;28;20282;-69
2023/10/18 00:13:22;;;;;;;3.55;2.60;;;18.10;66.40;;;;;;5009166;28;20207;-69
2023/10/18 00:15:59;;;;;;;3.72;2.85;;;18.10;66.40;;;;;;5012867;28;20216;-70
2023/10/18 00:18:25;;;;;;;2.38;2.17;;;18.10;66.40;;;;;;5009845;28;20183;-69
2023/10/18 00:21:02;;;;;;;2.88;2.67;;;18.10;66.40;;;;;;4998426;28;20199;-69
2023/10/18 00:23:31;;;;;;;3.13;2.83;;;18.10;66.30;;;;;;5009370;28;20207;-70
2023/10/18 00:26:02;;;;;;;3.05;2.75;;;18.10;66.40;;;;;;4998052;28;20234;-70
2023/10/18 00:28:28;;;;;;;2.92;2.53;;;18.10;66.40;;;;;;4998183;28;20270;-69
2023/10/18 00:30:53;;;;;;;3.63;3.25;;;18.10;66.30;;;;;;4997990;28;20210;-69
2023/10/18 00:33:20;;;;;;;3.20;2.90;;;18.10;66.30;;;;;;5013150;28;20219;-69
2023/10/18 00:35:48;;;;;;;4.35;2.65;;;18.10;66.40;;;;;;5011984;28;20245;-70
2023/10/18 00:38:18;;;;;;;3.42;3.00;;;18.10;66.40;;;;;;5031934;28;20184;-70
2023/10/18 00:40:45;;;;;;;3.00;2.75;;;18.10;66.40;;;;;;5014736;28;20789;-69
2023/10/18 00:43:22;;;;;;;3.05;2.85;;;18.10;66.50;;;;;;5021203;28;20207;-70
2023/10/18 00:45:51;;;;;;;3.22;2.90;;;18.10;66.40;;;;;;5014463;28;20195;-69
2023/10/18 00:48:20;;;;;;;3.30;3.00;;;18.10;66.30;;;;;;4997396;28;20646;-69
2023/10/18 00:50:48;;;;;;;3.55;3.20;;;18.10;66.40;;;;;;5013959;28;20682;-70
2023/10/18 00:53:31;;;;;;;3.10;2.78;;;18.10;66.40;;;;;;5014050;28;20199;-69
2023/10/18 00:56:11;;;;;;;3.20;2.90;;;18.10;66.30;;;;;;5016220;28;20193;-69
2023/10/18 00:58:39;;;;;;;3.22;2.92;;;18.10;66.30;;;;;;4994589;28;20195;-69
2023/10/18 01:01:09;;;;;;;2.72;2.53;;;18.10;66.30;;;;;;5013889;28;20202;-70
2023/10/18 01:03:45;;;;;;;2.88;2.67;;;18.10;66.30;;;;;;5013262;28;20203;-69
2023/10/18 01:06:21;;;;;;;3.13;2.83;;;18.10;66.40;;;;;;5011635;28;20184;-69
2023/10/18 01:08:50;;;;;;;3.03;2.72;;;18.10;66.50;;;;;;5013695;28;20182;-69
2023/10/18 01:11:22;;;;;;;2.83;2.60;;;18.10;66.50;;;;;;4997450;28;20183;-69
2023/10/18 01:13:48;;;;;;;3.08;2.83;;;18.00;66.20;;;;;;5013380;28;20221;-69
2023/10/18 01:16:22;;;;;;;2.80;2.60;;;18.10;66.40;;;;;;4999137;28;20191;-70
2023/10/18 01:18:50;;;;;;;3.50;3.20;;;18.00;66.20;;;;;;5013837;28;20214;-69
2023/10/18 01:21:19;;;;;;;2.70;2.50;;;18.00;66.20;;;;;;5014897;28;20199;-69
2023/10/18 01:23:54;;;;;;;2.67;2.47;;;18.10;66.40;;;;;;5013327;28;20221;-69
2023/10/18 01:26:29;;;;;;;3.08;2.88;;;18.10;66.40;;;;;;5012257;28;20191;-69
2023/10/18 01:28:57;;;;;;;2.88;2.55;;;18.00;66.10;;;;;;5013619;28;20266;-70
2023/10/18 01:31:24;;;;;;;2.70;2.50;;;18.00;66.10;;;;;;4991346;28;20302;-70
2023/10/18 01:33:51;;;;;;;2.92;2.70;;;18.00;66.30;;;;;;5031579;28;20223;-69
2023/10/18 01:36:21;;;;;;;2.72;2.53;;;18.00;66.20;;;;;;4993836;28;20195;-69
2023/10/18 01:38:52;;;;;;;3.10;2.90;;;18.00;66.10;;;;;;5014164;28;20183;-69
2023/10/18 01:41:34;;;;;;;3.00;2.78;;;18.00;66.20;;;;;;5032013;28;20362;-69
2023/10/18 01:44:06;;;;;;;3.17;2.88;;;18.00;66.20;;;;;;5013184;28;20215;-69
2023/10/18 01:46:48;;;;;;;3.00;2.70;;;18.00;66.20;;;;;;5022145;28;20266;-69
2023/10/18 01:49:19;;;;;;;2.67;2.47;;;18.00;66.10;;;;;;5013495;28;20262;-70
2023/10/18 01:51:52;;;;;;;3.85;2.65;;;18.00;66.20;;;;;;5010627;28;20562;-70
2023/10/18 01:54:20;;;;;;;2.67;2.45;;;18.00;66.10;;;;;;4997026;28;20234;-70
2023/10/18 01:56:52;;;;;;;2.97;2.78;;;18.00;66.00;;;;;;5013409;28;20282;-70
2023/10/18 01:59:18;;;;;;;2.92;2.72;;;18.00;66.10;;;;;;4994337;28;20203;-69
2023/10/18 02:01:45;;;;;;;2.90;2.60;;;18.00;66.00;;;;;;4998190;28;20187;-69
2023/10/18 02:04:26;;;;;;;3.10;2.80;;;18.00;66.00;;;;;;5012970;28;20695;-69
2023/10/18 02:06:59;;;;;;;2.80;2.60;;;18.00;66.00;;;;;;5013392;28;20187;-70
2023/10/18 02:09:36;;;;;;;2.63;2.42;;;18.00;66.10;;;;;;5013225;28;20191;-69
2023/10/18 02:12:08;;;;;;;2.90;2.70;;;18.00;66.10;;;;;;5029573;28;20191;-70
2023/10/18 02:14:38;;;;;;;2.83;2.63;;;18.00;66.10;;;;;;4998380;28;20237;-70
2023/10/18 02:17:07;;;;;;;2.92;2.63;;;18.00;66.10;;;;;;5017909;28;20187;-69
2023/10/18 02:19:32;;;;;;;3.20;2.80;;;18.00;66.20;;;;;;5033294;28;20184;-69
2023/10/18 02:21:59;;;;;;;2.72;2.53;;;18.00;66.10;;;;;;4999529;28;20199;-69
2023/10/18 02:24:25;;;;;;;2.70;2.50;;;18.00;66.10;;;;;;5017848;28;20633;-69
2023/10/18 02:26:54;;;;;;;2.50;2.30;;;18.00;66.10;;;;;;5035448;28;20219;-70
2023/10/18 02:29:23;;;;;;;3.08;2.63;;;18.00;66.10;;;;;;5025026;28;20211;-69
2023/10/18 02:31:57;;;;;;;2.60;2.40;;;18.00;66.00;;;;;;5034992;28;20183;-70
2023/10/18 02:34:26;;;;;;;2.92;2.40;;;18.00;66.00;;;;;;5028043;28;20203;-69
2023/10/18 02:36:53;;;;;;;2.92;2.72;;;18.00;66.20;;;;;;5018031;28;20191;-69
2023/10/18 02:39:30;;;;;;;2.58;2.38;;;18.00;66.10;;;;;;4999872;28;20198;-69
2023/10/18 02:41:56;;;;;;;3.00;2.80;;;18.00;66.10;;;;;;5016348;28;20608;-70
2023/10/18 02:44:22;;;;;;;2.47;2.28;;;18.00;66.10;;;;;;5016439;28;20276;-69
2023/10/18 02:46:55;;;;;;;2.63;2.42;;;18.00;66.10;;;;;;5016513;28;20194;-69
2023/10/18 02:49:23;;;;;;;2.83;2.63;;;18.00;66.10;;;;;;4998314;28;20248;-69
2023/10/18 02:51:50;;;;;;;2.92;2.72;;;18.00;66.10;;;;;;5016132;28;20670;-69
2023/10/18 02:54:17;;;;;;;2.85;2.65;;;18.00;66.10;;;;;;4999873;28;20203;-69
2023/10/18 02:56:51;;;;;;;2.58;2.38;;;18.00;66.00;;;;;;5016522;28;20271;-69
2023/10/18 02:59:24;;;;;;;3.67;2.70;;;18.00;66.00;;;;;;5015765;28;20266;-69
2023/10/18 03:01:55;;;;;;;2.10;2.00;;;18.00;66.10;;;;;;5016136;28;20182;-69
2023/10/18 03:04:23;;;;;;;2.72;2.53;;;18.00;66.00;;;;;;5008278;28;20245;-69
2023/10/18 03:06:55;;;;;;;2.67;2.47;;;18.00;66.10;;;;;;4999652;28;20183;-70
2023/10/18 03:12:02;;;;;;;2.75;2.55;;;18.00;66.00;;;;;;5029774;28;20187;-70
2023/10/18 03:17:14;;;;;;;2.80;2.60;;;18.00;66.10;;;;;;5013697;28;20775;-70
2023/10/18 03:19:44;;;;;;;2.63;2.40;;;17.90;66.10;;;;;;5015589;28;20198;-69
2023/10/18 03:22:11;;;;;;;3.08;2.88;;;18.00;66.10;;;;;;5015506;28;20230;-69
2023/10/18 03:24:37;;;;;;;2.88;2.55;;;18.00;66.10;;;;;;5015396;28;20217;-69
2023/10/18 03:27:08;;;;;;;2.90;2.70;;;18.00;66.10;;;;;;4999297;28;20567;-69
2023/10/18 03:29:37;;;;;;;2.92;2.60;;;18.00;66.10;;;;;;5015586;28;20179;-69
2023/10/18 03:32:08;;;;;;;2.58;2.45;;;18.00;66.10;;;;;;5015327;28;20188;-69
2023/10/18 03:34:37;;;;;;;2.10;2.00;;;18.00;66.10;;;;;;5015687;28;20207;-69
2023/10/18 03:37:04;;;;;;;2.90;2.70;;;18.00;66.00;;;;;;5015209;28;20210;-70
2023/10/18 03:39:31;;;;;;;2.53;2.33;;;17.90;66.00;;;;;;4999357;28;20237;-69
2023/10/18 03:41:58;;;;;;;2.55;2.35;;;18.00;66.00;;;;;;5012182;28;20222;-69
2023/10/18 03:44:27;;;;;;;2.58;2.38;;;17.90;65.90;;;;;;5006320;28;20222;-69
2023/10/18 03:47:04;;;;;;;2.30;2.20;;;17.90;65.90;;;;;;5014982;28;20237;-69
2023/10/18 03:49:33;;;;;;;2.90;2.70;;;17.90;66.00;;;;;;5008645;28;20274;-69
2023/10/18 03:52:16;;;;;;;2.65;2.45;;;17.90;66.00;;;;;;5014873;28;20187;-70
2023/10/18 03:57:28;;;;;;;2.80;2.60;;;18.00;66.00;;;;;;5040485;28;20198;-69
2023/10/18 04:00:22;;;;;;;2.70;2.50;;;18.00;66.10;;;;;;5003336;28;20207;-69
2023/10/18 04:02:46;;;;;;;3.05;2.85;;;17.90;66.00;;;;;;5014336;28;20245;-69
2023/10/18 04:05:30;;;;;;;2.35;2.15;;;17.90;66.00;;;;;;5014299;28;20224;-70
2023/10/18 04:07:56;;;;;;;2.45;2.25;;;17.90;65.90;;;;;;5033980;28;20187;-70
2023/10/18 04:10:24;;;;;;;3.00;2.80;;;17.90;66.00;;;;;;5023008;28;20197;-69
2023/10/18 04:12:50;;;;;;;2.65;2.45;;;17.90;66.00;;;;;;5011526;28;20219;-69
2023/10/18 04:15:22;;;;;;;3.10;2.80;;;17.90;66.00;;;;;;5014602;28;20218;-69
2023/10/18 04:20:32;;;;;;;2.58;2.38;;;17.90;66.00;;;;;;5008347;28;20194;-69
2023/10/18 04:22:58;;;;;;;3.03;2.70;;;17.90;66.00;;;;;;5031835;28;20641;-69
2023/10/18 04:25:26;;;;;;;2.60;2.40;;;17.90;66.00;;;;;;5039405;28;20214;-69
2023/10/18 04:27:53;;;;;;;2.60;2.40;;;17.90;66.00;;;;;;5014409;28;20202;-69
2023/10/18 04:30:22;;;;;;;3.03;2.45;;;17.90;66.00;;;;;;5014399;28;20203;-69
2023/10/18 04:32:54;;;;;;;2.42;2.22;;;17.90;66.00;;;;;;4997892;28;20199;-69
2023/10/18 04:35:26;;;;;;;2.95;2.75;;;17.90;66.00;;;;;;5000290;28;20223;-69
2023/10/18 04:37:56;;;;;;;2.70;2.50;;;17.90;66.00;;;;;;5018247;28;20222;-69
2023/10/18 04:40:22;;;;;;;3.25;2.97;;;17.90;66.00;;;;;;5023572;28;20186;-68
2023/10/18 04:42:56;;;;;;;2.72;2.53;;;17.90;66.00;;;;;;5018465;28;20305;-69
2023/10/18 04:45:24;;;;;;;2.53;2.33;;;17.90;65.90;;;;;;5014201;28;20305;-69
2023/10/18 04:48:14;;;;;;;3.35;2.60;;;17.90;65.90;;;;;;5018578;28;20192;-69
2023/10/18 04:50:40;;;;;;;2.80;2.60;;;17.90;66.00;;;;;;5011818;28;20204;-69
2023/10/18 04:53:14;;;;;;;2.90;2.70;;;17.90;66.00;;;;;;5020695;28;20261;-70
2023/10/18 04:55:41;;;;;;;2.50;2.30;;;17.90;66.00;;;;;;5042525;28;20209;-69
2023/10/18 04:58:07;;;;;;;2.50;2.30;;;17.90;66.00;;;;;;4997751;28;20219;-70
2023/10/18 05:00:50;;;;;;;2.78;2.58;;;17.90;66.00;;;;;;5001984;28;20178;-69
2023/10/18 05:03:17;;;;;;;2.83;2.63;;;17.90;66.00;;;;;;5030575;28;20219;-69
2023/10/18 05:05:44;;;;;;;2.70;2.50;;;17.90;66.00;;;;;;5050672;28;20202;-69
2023/10/18 05:08:16;;;;;;;2.53;2.33;;;17.90;66.00;;;;;;4998733;28;20191;-69
2023/10/18 05:10:45;;;;;;;2.85;2.65;;;17.90;66.00;;;;;;5049399;28;20240;-69
2023/10/18 05:13:19;;;;;;;2.78;2.58;;;17.90;66.00;;;;;;5040807;28;20248;-70
2023/10/18 05:15:49;;;;;;;2.47;2.28;;;17.90;66.00;;;;;;5018988;28;20207;-70
2023/10/18 05:18:15;;;;;;;2.72;2.30;;;17.90;66.00;;;;;;5006207;28;20206;-70
2023/10/18 05:20:47;;;;;;;2.88;2.67;;;17.90;66.00;;;;;;4999715;28;20180;-70
2023/10/18 05:23:22;;;;;;;2.75;2.55;;;17.90;66.10;;;;;;5019367;28;20219;-70
2023/10/18 05:25:56;;;;;;;2.55;2.40;;;17.90;66.10;;;;;;5003395;28;20211;-69
2023/10/18 05:28:25;;;;;;;2.42;2.22;;;17.90;66.00;;;;;;5019479;28;20195;-70
2023/10/18 05:31:25;;;;;;;2.78;2.58;;;17.90;66.00;;;;;;5031480;28;20187;-69
2023/10/18 05:33:49;;;;;;;2.80;2.55;;;17.90;66.10;;;;;;5035285;28;20249;-69
2023/10/18 05:41:28;;;;;;;2.53;2.33;;;17.90;65.90;;;;;;5031417;28;20220;-69
2023/10/18 05:43:58;;;;;;;2.80;2.50;;;17.90;65.90;;;;;;4999595;28;20220;-71
2023/10/18 05:46:28;;;;;;;3.50;2.58;;;17.80;65.80;;;;;;5030374;28;20180;-70
2023/10/18 05:48:55;;;;;;;2.78;2.58;;;17.90;66.00;;;;;;5003336;28;20197;-70
2023/10/18 05:51:26;;;;;;;2.80;2.60;;;17.90;66.10;;;;;;5015650;28;20191;-70
2023/10/18 05:53:59;;;;;;;2.88;2.65;;;17.90;66.10;;;;;;5009009;28;20215;-69
2023/10/18 05:56:31;;;;;;;2.90;2.70;;;17.80;65.90;;;;;;5014887;28;20192;-70
2023/10/18 06:01:57;;;;;;;2.78;2.58;;;17.90;65.80;;;;;;5041209;28;20268;-69
2023/10/18 06:04:24;;;;;;;2.78;2.47;;;17.90;65.90;;;;;;5015615;28;20723;-70
2023/10/18 06:06:52;;;;;;;2.50;2.25;;;17.80;65.70;;;;;;5034883;28;20198;-70
2023/10/18 06:09:26;;;;;;;2.90;2.70;;;17.90;66.00;;;;;;5017687;28;20191;-69
2023/10/18 06:11:56;;;;;;;2.80;2.50;;;17.90;66.00;;;;;;5027009;28;20236;-69
2023/10/18 06:14:25;;;;;;;2.80;2.60;;;17.80;65.90;;;;;;5015091;28;20674;-69
2023/10/18 06:17:06;;;;;;;2.78;2.42;;;17.90;66.00;;;;;;5013317;28;20323;-69
2023/10/18 06:19:36;;;;;;;3.45;2.40;;;17.80;65.90;;;;;;5016148;28;20198;-69
2023/10/18 06:22:14;;;;;;;2.70;2.50;;;17.90;66.00;;;;;;5001684;28;20192;-70
2023/10/18 06:24:48;;;;;;;2.60;2.30;;;17.90;66.00;;;;;;5029733;28;20219;-69
2023/10/18 06:27:17;;;;;;;2.80;2.60;;;17.90;65.90;;;;;;5022446;28;20199;-70
2023/10/18 06:29:53;;;;;;;2.60;2.40;;;17.90;65.90;;;;;;5026331;28;20186;-70
2023/10/18 06:32:25;;;;;;;2.70;2.50;;;17.80;65.80;;;;;;5023641;28;20214;-70
2023/10/18 06:34:57;;;;;;;2.70;2.50;;;17.90;65.90;;;;;;5001343;28;20202;-69
2023/10/18 06:37:24;;;;;;;2.70;2.50;;;17.80;65.80;;;;;;5018021;28;20191;-69
2023/10/18 06:39:58;;;;;;;2.63;2.42;;;17.90;65.90;;;;;;5017454;28;20188;-70
2023/10/18 06:42:27;;;;;;;3.25;2.55;;;17.90;65.90;;;;;;5015827;28;20199;-70
2023/10/18 06:44:54;;;;;;;2.60;2.40;;;17.80;65.90;;;;;;5009267;28;20574;-70
2023/10/18 06:47:30;;;;;;;3.17;2.20;;;17.90;66.00;;;;;;5033821;28;20202;-69
2023/10/18 06:49:59;;;;;;;2.90;2.60;;;17.90;66.00;;;;;;5006023;28;20558;-71
2023/10/18 06:52:30;;;;;;;3.08;2.78;;;17.90;66.00;;;;;;5035086;28;20199;-70
2023/10/18 06:54:56;;;;;;;2.60;2.40;;;17.90;66.00;;;;;;5016345;28;20196;-70
2023/10/18 06:57:27;;;;;;;2.38;2.17;;;17.80;65.80;;;;;;5021598;28;20191;-70
2023/10/18 06:59:54;;;;;;;2.30;2.10;;;17.90;65.90;;;;;;5039219;28;20273;-69
2023/10/18 07:02:26;;;;;;;2.50;2.30;;;17.80;65.80;;;;;;5032923;28;20199;-70
2023/10/18 07:04:56;;;;;;;2.80;2.47;;;17.90;65.90;;;;;;5033978;28;20340;-70
2023/10/18 07:07:23;;;;;;;2.17;1.98;;;17.90;65.90;;;;;;5005123;28;20191;-70
2023/10/18 07:09:53;;;;;;;2.88;2.33;;;17.90;66.00;;;;;;4996302;28;20183;-69
2023/10/18 07:12:26;;;;;;;2.25;2.08;;;17.90;65.90;;;;;;5005002;28;20214;-69
2023/10/18 07:14:55;;;;;;;2.47;2.30;;;17.80;65.70;;;;;;5016185;28;20650;-69
2023/10/18 07:17:24;;;;;;;2.65;2.25;;;17.80;65.80;;;;;;5000378;28;20206;-69
2023/10/18 07:19:55;;;;;;;2.50;2.30;;;17.80;65.80;;;;;;5025577;28;20198;-69
2023/10/18 07:22:39;;;;;;;2.42;2.20;;;17.90;66.00;;;;;;4996136;28;20233;-69
2023/10/18 07:25:08;;;;;;;2.00;1.90;;;17.80;65.80;;;;;;4999024;28;20210;-70
2023/10/18 07:27:36;;;;;;;2.38;2.17;;;17.90;66.00;;;;;;5037442;28;20189;-69
2023/10/18 07:30:13;;;;;;;2.15;2.03;;;17.90;66.00;;;;;;5038485;28;20195;-69
2023/10/18 07:32:41;;;;;;;2.50;2.30;;;17.80;65.90;;;;;;4999084;28;20249;-70
2023/10/18 07:35:12;;;;;;;2.85;2.08;;;17.90;65.90;;;;;;5009441;28;20186;-69
2023/10/18 07:37:41;;;;;;;2.30;2.10;;;17.90;65.90;;;;;;5032966;28;20194;-69
2023/10/18 07:40:10;;;;;;;2.22;2.03;;;17.90;65.80;;;;;;5015355;28;20202;-70
2023/10/18 07:42:41;;;;;;;2.25;2.05;;;17.90;65.80;;;;;;5014747;28;20191;-69
2023/10/18 07:45:08;;;;;;;2.50;2.30;;;17.90;65.70;;;;;;5025412;28;20588;-69
2023/10/18 07:47:37;;;;;;;2.45;2.17;;;17.90;65.70;;;;;;5032597;28;20221;-69
2023/10/18 07:50:34;;;;;;;2.40;2.22;;;18.00;65.80;;;;;;5010106;28;20187;-70
2023/10/18 07:52:56;;;;;;;2.40;2.20;;;18.00;65.70;;;;;;5032836;28;20306;-70
2023/10/18 07:55:23;;;;;;;4.15;2.35;;;18.00;65.80;;;;;;5017858;28;20191;-69
2023/10/18 07:57:50;;;;;;;2.75;2.45;;;18.00;65.70;;;;;;5002906;28;20209;-69
2023/10/18 08:00:21;;;;;;;2.05;1.95;;;18.00;65.70;;;;;;4998787;28;20234;-69
2023/10/18 08:02:50;;;;;;;2.50;2.30;;;18.00;65.70;;;;;;5018477;28;20241;-70
2023/10/18 08:05:30;;;;;;;2.17;2.08;;;18.00;65.70;;;;;;5000548;28;20212;-69
2023/10/18 08:07:57;;;;;;;1.90;1.80;;;18.00;65.70;;;;;;5015084;28;20191;-70
2023/10/18 08:10:26;;;;;;;1.98;1.88;;;18.00;65.60;;;;;;5019425;28;20191;-70
2023/10/18 08:13:26;;;;;;;2.30;2.10;;;18.10;65.70;;;;;;5018485;28;20210;-69
2023/10/18 08:15:50;;;;;;;3.03;2.15;;;18.00;65.60;;;;;;5033358;28;20242;-68
2023/10/18 08:18:17;;;;;;;2.30;2.03;;;18.00;65.60;;;;;;5036908;28;20195;-70
2023/10/18 08:25:51;;;;;;;2.40;2.20;;;18.00;65.60;;;;;;5041323;28;20245;-70
2023/10/18 08:28:18;;;;;;;2.47;2.28;;;18.00;65.60;;;;;;5014082;28;20223;-69
2023/10/18 08:33:10;;;;;;;2.60;2.28;;;18.10;65.70;;;;;;5031698;28;20223;-69
2023/10/18 08:35:37;;;;;;;2.95;2.70;;;18.00;65.70;;;;;;5014328;28;20701;-69
2023/10/18 08:38:04;;;;;;;2.83;2.58;;;18.00;65.70;;;;;;5011855;28;20199;-69
2023/10/18 08:43:28;;;;;;;2.50;2.30;;;18.10;65.70;;;;;;5036049;28;20206;-70
2023/10/18 08:45:55;;;;;;;2.72;2.47;;;18.10;65.60;;;;;;5026980;28;20226;-69
2023/10/18 08:48:28;;;;;;;3.30;2.70;;;18.00;65.60;;;;;;5035972;28;20204;-69
2023/10/18 08:51:02;;;;;;;5.32;3.60;;;18.10;65.70;;;;;;5011066;28;20192;-69
2023/10/18 08:53:34;;;;;;;4.32;3.40;;;18.10;65.60;;;;;;5013856;28;20211;-70
2023/10/18 08:56:00;;;;;;;4.05;2.83;;;18.10;65.90;;;;;;5015625;28;20201;-69
2023/10/18 08:58:28;;;;;;;4.60;3.35;;;18.10;65.70;;;;;;5001616;28;20187;-70
2023/10/18 09:03:23;;;;;;;4.07;3.28;;;18.10;65.70;;;;;;5018042;28;20222;-70
2023/10/18 09:05:53;;;;;;;4.07;3.30;;;18.10;65.70;;;;;;5018154;28;20225;-70
2023/10/18 09:08:26;;;;;;;3.83;3.30;;;18.10;65.70;;;;;;5017873;28;20278;-69
2023/10/18 09:10:55;;;;;;;3.72;2.97;;;18.10;65.70;;;;;;5030871;28;20187;-70
2023/10/18 09:18:23;;;;;;;3.65;2.97;;;18.10;65.60;;;;;;5031444;28;20240;-70
2023/10/18 09:20:50;;;;;;;4.00;3.10;;;18.10;65.70;;;;;;5017635;28;20257;-69
2023/10/18 09:23:20;;;;;;;3.88;3.15;;;18.10;65.70;;;;;;5017615;28;20226;-70
2023/10/18 09:25:51;;;;;;;3.33;3.03;;;18.10;65.70;;;;;;4999355;28;20211;-69
2023/10/18 09:28:33;;;;;;;3.80;3.40;;;18.10;65.70;;;;;;5019928;28;20244;-70
2023/10/18 09:31:10;;;;;;;3.42;3.13;;;18.10;65.70;;;;;;5008047;28;20219;-69
2023/10/18 09:33:38;;;;;;;4.15;3.22;;;18.10;65.70;;;;;;5002462;28;20214;-69
2023/10/18 09:36:19;;;;;;;4.07;3.67;;;18.10;65.80;;;;;;5005078;28;20198;-70
2023/10/18 09:38:48;;;;;;;3.85;3.45;;;18.10;65.80;;;;;;5017591;28;20186;-70
2023/10/18 09:41:15;;;;;;;4.88;3.53;;;18.10;65.70;;;;;;5035176;28;20206;-69
2023/10/18 09:43:42;;;;;;;3.50;3.20;;;18.10;65.60;;;;;;5025463;28;20213;-70
2023/10/18 09:46:08;;;;;;;3.92;3.28;;;18.10;65.70;;;;;;5005415;28;20207;-69
2023/10/18 09:48:38;;;;;;;4.38;3.40;;;18.10;65.70;;;;;;5016873;28;20274;-70
2023/10/18 09:51:09;;;;;;;3.58;3.22;;;18.10;65.70;;;;;;5025743;28;20218;-69
2023/10/18 09:53:42;;;;;;;3.25;2.95;;;18.10;65.80;;;;;;5025589;28;20212;-69
2023/10/18 09:56:12;;;;;;;4.13;3.42;;;18.10;65.80;;;;;;5005098;28;20197;-70
2023/10/18 09:58:44;;;;;;;3.40;3.10;;;18.10;65.70;;;;;;5017543;28;20241;-69
2023/10/18 10:01:17;;;;;;;3.50;3.20;;;18.10;65.80;;;;;;5000685;28;20187;-69
2023/10/18 10:03:52;;;;;;;3.90;3.50;;;18.10;65.70;;;;;;5016975;28;20207;-70
2023/10/18 10:06:23;;;;;;;3.70;3.40;;;18.10;65.70;;;;;;5033639;28;20270;-70
2023/10/18 10:09:11;;;;;;;4.05;3.22;;;18.10;65.70;;;;;;5007687;28;20210;-70
2023/10/18 10:11:43;;;;;;;3.53;3.22;;;18.10;65.70;;;;;;5014847;28;20175;-69
2023/10/18 10:14:17;;;;;;;4.65;3.47;;;18.10;65.70;;;;;;5034548;28;20274;-69
2023/10/18 10:17:09;;;;;;;4.05;3.65;;;18.10;65.70;;;;;;5018507;28;20309;-70
2023/10/18 10:19:41;;;;;;;4.22;3.58;;;18.20;65.80;;;;;;5000607;28;20190;-69
2023/10/18 10:22:11;;;;;;;3.70;3.40;;;18.10;65.70;;;;;;5016040;28;20202;-70
2023/10/18 10:24:43;;;;;;;4.20;3.80;;;18.20;65.80;;;;;;5036521;28;20226;-70
2023/10/18 10:33:11;;;;;;;3.20;2.92;;;18.10;65.80;;;;;;5017922;28;20207;-69
2023/10/18 10:35:46;;;;;;;4.13;3.45;;;18.20;65.80;;;;;;5016826;28;20191;-69
2023/10/18 10:38:19;;;;;;;3.33;2.95;;;18.10;65.70;;;;;;5009742;28;20194;-70
2023/10/18 10:40:48;;;;;;;3.35;3.05;;;18.20;65.80;;;;;;5034073;28;20184;-69
2023/10/18 10:43:19;;;;;;;3.40;3.10;;;18.20;65.80;;;;;;5002798;28;20207;-69
2023/10/18 10:48:18;;;;;;;4.18;3.75;;;18.10;65.80;;;;;;5024622;28;20293;-69
2023/10/18 10:50:57;;;;;;;3.53;3.22;;;18.20;66.10;;;;;;5005752;28;20199;-69
2023/10/18 10:53:34;;;;;;;3.50;3.20;;;18.20;66.10;;;;;;5011237;28;20257;-69
2023/10/18 10:56:30;;;;;;;4.68;3.60;;;18.20;66.20;;;;;;5027338;28;20218;-69
2023/10/18 11:01:39;;;;;;;4.38;3.25;;;18.20;66.10;;;;;;5012030;28;20677;-69
2023/10/18 11:04:14;;;;;;;3.08;2.78;;;18.20;66.10;;;;;;5036272;28;20211;-69
2023/10/18 11:06:45;;;;;;;3.72;3.42;;;18.20;66.00;;;;;;5024050;28;20281;-69
2023/10/18 11:09:16;;;;;;;4.18;3.15;;;18.20;66.10;;;;;;5021031;28;20189;-69
2023/10/18 11:11:45;;;;;;;3.10;2.90;;;18.20;66.00;;;;;;5013183;28;20184;-69
2023/10/18 11:14:22;;;;;;;4.30;3.30;;;18.20;66.10;;;;;;4997957;28;20208;-69
2023/10/18 11:16:53;;;;;;;3.35;2.90;;;18.20;66.00;;;;;;5017347;28;20187;-69
2023/10/18 11:19:28;;;;;;;3.78;3.40;;;18.20;66.10;;;;;;5038385;28;20191;-69
2023/10/18 11:21:55;;;;;;;3.35;3.05;;;18.20;66.00;;;;;;5017863;28;20678;-69
2023/10/18 11:24:21;;;;;;;3.42;3.13;;;18.20;66.10;;;;;;5012453;28;20237;-69
2023/10/18 11:26:50;;;;;;;4.15;3.70;;;18.20;65.90;;;;;;5036848;28;20191;-69
2023/10/18 11:29:24;;;;;;;3.55;3.25;;;18.20;65.90;;;;;;5001612;28;20183;-69
2023/10/18 11:31:55;;;;;;;3.85;3.40;;;18.20;65.80;;;;;;5003930;28;20180;-69
2023/10/18 11:34:27;;;;;;;3.53;3.22;;;18.20;66.00;;;;;;5035257;28;20215;-70
2023/10/18 11:37:01;;;;;;;4.25;3.38;;;18.20;65.90;;;;;;5033078;28;20199;-69
2023/10/18 11:39:32;;;;;;;3.92;3.25;;;18.20;65.90;;;;;;5001271;28;20676;-69
2023/10/18 11:41:59;;;;;;;3.30;2.97;;;18.20;66.00;;;;;;4998901;28;20202;-69
2023/10/18 11:44:26;;;;;;;3.30;3.00;;;18.20;66.00;;;;;;5015287;28;20269;-69
2023/10/18 11:46:56;;;;;;;3.58;3.28;;;18.20;66.00;;;;;;4998845;28;20195;-69
2023/10/18 11:49:36;;;;;;;3.78;3.47;;;18.20;66.10;;;;;;5015629;28;20229;-68
2023/10/18 11:52:03;;;;;;;3.42;3.13;;;18.20;66.90;;;;;;5017463;28;20222;-68
2023/10/18 11:54:34;;;;;;;3.75;3.45;;;18.20;66.10;;;;;;5004161;28;20249;-68
2023/10/18 11:57:03;;;;;;;3.42;3.13;;;18.20;66.00;;;;;;5031428;28;20192;-68
2023/10/18 11:59:29;;;;;;;3.33;3.03;;;18.20;66.80;;;;;;5015326;28;20197;-68
2023/10/18 12:02:04;;;;;;;3.40;3.10;;;18.20;66.00;;;;;;5016412;28;20195;-70
2023/10/18 12:04:37;;;;;;;3.95;3.55;;;18.20;66.10;;;;;;4997040;28;20261;-68
2023/10/18 12:07:04;;;;;;;3.60;3.30;;;18.10;66.10;;;;;;5034265;28;20193;-68
2023/10/18 12:09:42;;;;;;;2.90;2.70;;;18.10;66.00;;;;;;5014877;28;20187;-69
2023/10/18 12:12:13;;;;;;;3.78;3.40;;;18.10;66.10;;;;;;5004948;28;20183;-68
2023/10/18 12:14:42;;;;;;;3.70;3.40;;;18.20;66.20;;;;;;4998327;28;20207;-68
2023/10/18 12:17:13;;;;;;;4.68;3.50;;;18.10;66.10;;;;;;5014931;28;20187;-68
2023/10/18 12:19:39;;;;;;;3.45;3.15;;;18.20;66.20;;;;;;5015151;28;20238;-67
2023/10/18 12:22:07;;;;;;;3.78;3.47;;;18.10;66.10;;;;;;5031208;28;20199;-70
2023/10/18 12:24:33;;;;;;;4.07;3.70;;;18.10;66.10;;;;;;5032228;28;20223;-70
2023/10/18 12:27:15;;;;;;;4.00;3.70;;;18.10;66.10;;;;;;5014732;28;20203;-70
2023/10/18 12:29:43;;;;;;;4.20;3.80;;;18.20;66.20;;;;;;5032214;28;20191;-70
2023/10/18 12:32:25;;;;;;;3.60;3.30;;;18.20;66.20;;;;;;4998018;28;20191;-70
2023/10/18 12:35:07;;;;;;;3.97;3.67;;;18.20;66.20;;;;;;5014394;28;20230;-68
2023/10/18 12:37:33;;;;;;;3.85;3.38;;;18.20;66.30;;;;;;5014511;28;20190;-68
2023/10/18 12:40:00;;;;;;;4.07;3.47;;;18.20;66.20;;;;;;5033344;28;20198;-68
2023/10/18 12:42:33;;;;;;;3.67;3.38;;;18.20;66.20;;;;;;5030552;28;20195;-68
2023/10/18 12:45:08;;;;;;;4.38;3.72;;;18.20;66.30;;;;;;5014473;28;20215;-69
2023/10/18 12:47:34;;;;;;;4.25;3.85;;;18.20;66.30;;;;;;5014574;28;20217;-68
2023/10/18 12:50:03;;;;;;;4.18;3.78;;;18.20;67.00;;;;;;5034732;28;20187;-68
2023/10/18 12:57:49;;;;;;;4.20;3.80;;;18.20;66.30;;;;;;5015352;28;20265;-69
2023/10/18 13:00:18;;;;;;;4.00;3.60;;;18.20;67.00;;;;;;5013638;28;20183;-67
2023/10/18 13:05:22;;;;;;;4.55;4.15;;;18.20;66.30;;;;;;5025560;28;20256;-68
2023/10/18 13:07:54;;;;;;;4.72;3.83;;;18.20;66.20;;;;;;5032713;28;20210;-68
2023/10/18 13:10:29;;;;;;;3.92;3.53;;;18.20;66.20;;;;;;5030454;28;20199;-68
2023/10/18 13:12:55;;;;;;;4.28;3.88;;;18.20;66.30;;;;;;5004564;28;20217;-68
2023/10/18 13:15:22;;;;;;;5.43;3.83;;;18.20;66.30;;;;;;5008072;28;20195;-68
2023/10/18 13:17:51;;;;;;;3.85;3.47;;;18.20;66.30;;;;;;5032429;28;20191;-68
2023/10/18 13:20:24;;;;;;;3.78;3.47;;;18.20;66.30;;;;;;5031557;28;20187;-68
2023/10/18 13:22:56;;;;;;;4.38;3.97;;;18.20;66.30;;;;;;5011149;28;20226;-68
2023/10/18 13:25:36;;;;;;;4.68;3.72;;;18.20;66.30;;;;;;5007427;28;20211;-68
2023/10/18 13:28:07;;;;;;;5.03;3.92;;;18.20;66.30;;;;;;5013857;28;20249;-68
2023/10/18 13:30:39;;;;;;;7.05;4.20;;;18.20;66.40;;;;;;5010857;28;20266;-68
2023/10/18 13:33:11;;;;;;;4.53;3.75;;;18.20;66.40;;;;;;5029996;28;20226;-68
2023/10/18 13:35:41;;;;;;;4.10;3.70;;;18.20;66.40;;;;;;5013930;28;20198;-68
2023/10/18 13:38:07;;;;;;;4.97;3.75;;;18.20;66.50;;;;;;5013548;28;20187;-68
2023/10/18 13:40:36;;;;;;;4.10;3.60;;;18.20;66.40;;;;;;5031897;28;20198;-68
2023/10/18 13:43:09;;;;;;;3.80;3.42;;;18.20;66.30;;;;;;5030449;28;20215;-68
2023/10/18 13:45:35;;;;;;;4.90;3.70;;;18.20;66.50;;;;;;5013703;28;20211;-68
2023/10/18 13:48:02;;;;;;;3.75;3.45;;;18.10;66.40;;;;;;5028734;28;20200;-68
2023/10/18 13:50:35;;;;;;;4.05;3.65;;;18.20;66.50;;;;;;5031698;28;20187;-68
2023/10/18 13:53:01;;;;;;;3.75;3.45;;;18.20;66.50;;;;;;5014679;28;20282;-68
2023/10/18 13:55:26;;;;;;;3.60;3.28;;;18.10;66.40;;;;;;5013931;28;20326;-68
2023/10/18 13:57:52;;;;;;;3.85;3.50;;;18.20;66.50;;;;;;5030402;28;20187;-68
2023/10/18 14:00:21;;;;;;;3.95;3.58;;;18.20;66.50;;;;;;5030107;28;20587;-68
2023/10/18 14:02:47;;;;;;;3.92;3.53;;;18.20;66.50;;;;;;5030263;28;20203;-68